createdAt,value
2018-12-31T00:00:59.987Z,9.23
2018-12-31T00:03:28.644Z,9.87
2018-12-31T00:05:57.113Z,11.33
2018-12-31T00:08:25.732Z,11.00
2018-12-31T00:10:54.311Z,11.00
2018-12-31T00:13:22.787Z,10.57
2018-12-31T00:15:51.248Z,10.13
2018-12-31T00:18:19.823Z,10.23
2018-12-31T00:20:48.332Z,10.87
2018-12-31T00:23:17.214Z,10.00
2018-12-31T00:25:45.635Z,9.60
2018-12-31T00:28:14.486Z,10.00
2018-12-31T00:30:43.379Z,9.47
2018-12-31T00:33:11.801Z,9.80
2018-12-31T00:35:40.497Z,9.80
2018-12-31T00:38:08.935Z,9.80
2018-12-31T00:40:37.392Z,10.20
2018-12-31T00:43:06.041Z,9.77
2018-12-31T00:45:34.497Z,9.00
2018-12-31T00:48:03.035Z,9.57
2018-12-31T00:50:31.497Z,9.80
2018-12-31T00:53:00.055Z,9.63
2018-12-31T00:55:28.813Z,10.60
2018-12-31T00:57:57.314Z,10.30
2018-12-31T01:00:25.792Z,10.17
2018-12-31T01:02:54.343Z,11.07
2018-12-31T01:05:22.872Z,11.57
2018-12-31T01:07:51.735Z,10.07
2018-12-31T01:10:20.279Z,10.20
2018-12-31T01:12:48.819Z,10.03
2018-12-31T01:15:17.396Z,10.47
2018-12-31T01:17:45.872Z,10.23
2018-12-31T01:20:14.657Z,11.50
2018-12-31T01:22:43.178Z,9.77
2018-12-31T01:25:11.723Z,9.93
2018-12-31T01:27:40.286Z,10.20
2018-12-31T01:30:08.890Z,10.27
2018-12-31T01:32:37.362Z,10.00
2018-12-31T01:35:06.188Z,9.90
2018-12-31T01:37:34.971Z,9.80
2018-12-31T01:40:03.526Z,9.93
2018-12-31T01:42:32.018Z,10.33
2018-12-31T01:45:00.542Z,10.27
2018-12-31T01:47:29.031Z,10.23
2018-12-31T01:49:57.799Z,10.17
2018-12-31T01:52:26.272Z,9.70
2018-12-31T01:54:54.688Z,9.97
2018-12-31T01:57:23.181Z,10.33
2018-12-31T01:59:51.661Z,10.00
2018-12-31T02:02:20.101Z,9.70
2018-12-31T02:04:48.582Z,9.30
2018-12-31T02:07:17.071Z,10.10
2018-12-31T02:09:45.546Z,9.67
2018-12-31T02:12:14.334Z,9.70
2018-12-31T02:14:42.846Z,9.73
2018-12-31T02:17:11.335Z,10.77
2018-12-31T02:19:39.871Z,10.30
2018-12-31T02:22:08.393Z,10.47
2018-12-31T02:24:36.858Z,10.30
2018-12-31T02:27:05.740Z,10.50
2018-12-31T02:29:34.157Z,10.10
2018-12-31T02:32:02.700Z,9.90
2018-12-31T02:34:31.487Z,9.83
2018-12-31T02:37:19.295Z,9.57
2018-12-31T02:39:47.681Z,11.30
2018-12-31T02:42:16.168Z,10.43
2018-12-31T02:44:44.983Z,11.10
2018-12-31T02:47:15.173Z,9.77
2018-12-31T02:49:44.117Z,10.33
2018-12-31T02:52:12.620Z,10.93
2018-12-31T02:54:41.187Z,11.20
2018-12-31T02:57:09.658Z,11.60
2018-12-31T02:59:38.536Z,10.20
2018-12-31T03:02:06.995Z,10.53
2018-12-31T03:04:35.540Z,10.50
2018-12-31T03:07:04.085Z,10.17
2018-12-31T03:09:32.540Z,10.83
2018-12-31T03:12:00.999Z,12.07
2018-12-31T03:17:23.833Z,10.97
2018-12-31T03:19:52.300Z,10.70
2018-12-31T03:22:20.823Z,11.33
2018-12-31T03:24:49.438Z,11.20
2018-12-31T03:27:18.151Z,11.50
2018-12-31T03:29:46.813Z,11.37
2018-12-31T03:32:15.329Z,11.93
2018-12-31T03:34:43.825Z,12.10
2018-12-31T03:37:12.312Z,11.53
2018-12-31T03:39:40.749Z,12.80
2018-12-31T03:42:09.768Z,11.80
2018-12-31T03:44:38.367Z,12.20
2018-12-31T03:47:06.831Z,12.30
2018-12-31T03:49:35.354Z,12.67
2018-12-31T03:52:03.966Z,12.60
2018-12-31T03:54:32.411Z,11.80
2018-12-31T03:57:00.839Z,13.17
2018-12-31T03:59:29.653Z,12.10
2018-12-31T04:01:58.145Z,12.97
2018-12-31T04:04:26.767Z,13.37
2018-12-31T04:06:55.515Z,12.90
2018-12-31T04:09:23.916Z,11.17
2018-12-31T04:11:52.354Z,12.40
2018-12-31T04:14:20.813Z,11.90
2018-12-31T04:16:49.663Z,12.37
2018-12-31T04:19:18.124Z,12.53
2018-12-31T04:21:46.531Z,12.87
2018-12-31T04:24:15.106Z,13.23
2018-12-31T04:26:43.562Z,14.10
2018-12-31T04:29:11.991Z,14.57
2018-12-31T04:31:40.438Z,14.03
2018-12-31T04:34:08.983Z,13.53
2018-12-31T04:36:37.535Z,14.07
2018-12-31T04:39:45.979Z,14.13
2018-12-31T04:42:14.510Z,14.63
2018-12-31T04:44:43.020Z,12.70
2018-12-31T04:47:11.466Z,13.77
2018-12-31T04:49:40.475Z,14.03
2018-12-31T04:52:08.928Z,15.30
2018-12-31T04:54:37.849Z,14.17
2018-12-31T04:57:06.385Z,13.70
2018-12-31T04:59:34.949Z,13.70
2018-12-31T05:02:03.459Z,15.00
2018-12-31T05:04:31.988Z,13.80
2018-12-31T05:07:00.490Z,13.37
2018-12-31T05:09:28.959Z,14.23
2018-12-31T05:11:57.508Z,13.23
2018-12-31T05:14:26.068Z,14.03
2018-12-31T05:16:54.574Z,13.87
2018-12-31T05:19:23.024Z,15.03
2018-12-31T05:21:51.658Z,13.67
2018-12-31T05:24:20.191Z,14.37
2018-12-31T05:26:48.696Z,15.67
2018-12-31T05:29:17.179Z,14.03
2018-12-31T05:31:45.714Z,15.10
2018-12-31T05:34:14.242Z,14.83
2018-12-31T05:36:42.881Z,14.00
2018-12-31T05:39:11.358Z,14.87
2018-12-31T05:41:39.776Z,14.47
2018-12-31T05:44:08.232Z,14.23
2018-12-31T05:46:36.706Z,14.50
2018-12-31T05:49:05.164Z,13.33
2018-12-31T05:51:33.628Z,13.60
2018-12-31T05:54:02.069Z,14.40
2018-12-31T05:56:30.933Z,13.43
2018-12-31T05:58:59.376Z,14.97
2018-12-31T06:01:27.967Z,13.13
2018-12-31T06:03:56.450Z,13.03
2018-12-31T06:06:24.814Z,13.37
2018-12-31T06:08:53.555Z,13.47
2018-12-31T06:11:22.330Z,13.20
2018-12-31T06:13:50.826Z,13.13
2018-12-31T06:16:19.340Z,13.97
2018-12-31T06:18:47.811Z,14.07
2018-12-31T06:21:16.271Z,13.97
2018-12-31T06:23:44.872Z,14.07
2018-12-31T06:26:13.416Z,13.63
2018-12-31T06:28:41.910Z,13.80
2018-12-31T06:31:10.460Z,13.67
2018-12-31T06:33:38.976Z,14.17
2018-12-31T06:36:07.557Z,14.23
2018-12-31T06:38:36.362Z,14.87
2018-12-31T06:41:04.877Z,15.13
2018-12-31T06:43:33.444Z,13.43
2018-12-31T06:46:02.068Z,14.40
2018-12-31T06:48:30.510Z,14.40
2018-12-31T06:50:59.069Z,16.50
2018-12-31T06:53:27.667Z,14.93
2018-12-31T06:55:56.140Z,14.17
2018-12-31T06:58:25.484Z,14.10
2018-12-31T07:00:55.155Z,15.57
2018-12-31T07:03:23.599Z,14.77
2018-12-31T07:05:52.130Z,16.30
2018-12-31T07:08:20.603Z,14.53
2018-12-31T07:10:49.218Z,15.23
2018-12-31T07:13:17.719Z,14.10
2018-12-31T07:15:46.173Z,15.00
2018-12-31T07:20:50.066Z,14.10
2018-12-31T07:23:18.649Z,15.73
2018-12-31T07:25:47.183Z,14.27
2018-12-31T07:28:15.741Z,15.00
2018-12-31T07:30:44.214Z,15.63
2018-12-31T07:33:12.687Z,14.90
2018-12-31T07:35:41.154Z,14.63
2018-12-31T07:38:09.668Z,14.93
2018-12-31T07:40:38.159Z,16.67
2018-12-31T07:43:06.680Z,15.43
2018-12-31T07:45:35.229Z,15.70
2018-12-31T07:48:03.747Z,16.07
2018-12-31T07:50:32.405Z,15.10
2018-12-31T07:53:00.903Z,15.53
2018-12-31T07:55:29.356Z,15.80
2018-12-31T07:57:58.011Z,16.87
2018-12-31T08:00:26.464Z,16.20
2018-12-31T08:02:55.006Z,15.50
2018-12-31T08:05:23.477Z,15.30
2018-12-31T08:07:51.933Z,15.67
2018-12-31T08:10:20.518Z,15.63
2018-12-31T08:12:48.992Z,15.67
2018-12-31T08:15:17.463Z,15.60
2018-12-31T08:17:45.956Z,16.60
2018-12-31T08:20:14.530Z,15.33
2018-12-31T08:22:43.079Z,15.60
2018-12-31T08:25:11.563Z,14.50
2018-12-31T08:27:40.005Z,18.00
2018-12-31T08:30:08.652Z,15.10
2018-12-31T08:32:37.340Z,15.33
2018-12-31T08:35:05.910Z,16.00
2018-12-31T08:37:34.605Z,15.27
2018-12-31T08:40:03.117Z,14.83
2018-12-31T08:42:32.044Z,15.97
2018-12-31T08:45:00.506Z,15.57
2018-12-31T08:47:29.121Z,15.60
2018-12-31T08:49:57.619Z,15.57
2018-12-31T08:52:26.025Z,15.67
2018-12-31T08:54:54.567Z,16.60
2018-12-31T08:57:22.957Z,15.80
2018-12-31T08:59:51.521Z,16.77
2018-12-31T09:02:20.121Z,15.50
2018-12-31T09:04:48.557Z,15.83
2018-12-31T09:07:16.995Z,16.13
2018-12-31T09:09:45.576Z,15.80
2018-12-31T09:12:14.038Z,16.47
2018-12-31T09:14:42.581Z,15.87
2018-12-31T09:17:11.125Z,16.50
2018-12-31T09:19:39.655Z,16.77
2018-12-31T09:22:08.245Z,16.63
2018-12-31T09:24:44.482Z,15.33
2018-12-31T09:27:07.014Z,15.37
2018-12-31T09:29:35.559Z,17.00
2018-12-31T09:32:04.019Z,17.20
2018-12-31T09:34:32.513Z,17.13
2018-12-31T09:37:01.090Z,20.23
2018-12-31T09:39:29.614Z,18.60
2018-12-31T09:41:58.193Z,16.13
2018-12-31T09:44:26.676Z,16.03
2018-12-31T09:46:55.449Z,15.30
2018-12-31T09:49:24.006Z,15.20
2018-12-31T09:51:52.525Z,16.07
2018-12-31T09:54:20.979Z,14.63
2018-12-31T09:56:49.552Z,15.50
2018-12-31T09:59:18.065Z,15.77
2018-12-31T10:01:46.620Z,14.83
2018-12-31T10:04:15.241Z,15.60
2018-12-31T10:06:43.858Z,15.37
2018-12-31T10:09:12.446Z,16.13
2018-12-31T10:11:41.056Z,14.27
2018-12-31T10:14:09.586Z,15.80
2018-12-31T10:16:38.146Z,14.57
2018-12-31T10:19:06.763Z,15.67
2018-12-31T10:21:40.887Z,15.10
2018-12-31T10:24:05.687Z,14.33
2018-12-31T10:26:34.159Z,13.97
2018-12-31T10:29:02.825Z,14.53
2018-12-31T10:31:31.328Z,14.27
2018-12-31T10:33:59.781Z,14.20
2018-12-31T10:36:28.293Z,13.70
2018-12-31T10:38:56.740Z,14.20
2018-12-31T10:41:25.205Z,14.10
2018-12-31T10:43:53.670Z,14.60
2018-12-31T10:46:22.614Z,13.10
2018-12-31T10:48:51.271Z,13.80
2018-12-31T10:51:19.841Z,13.00
2018-12-31T10:53:48.348Z,14.30
2018-12-31T10:56:16.902Z,12.40
2018-12-31T10:58:45.507Z,13.40
2018-12-31T11:01:13.950Z,13.37
2018-12-31T11:03:42.514Z,13.33
2018-12-31T11:06:11.048Z,13.23
2018-12-31T11:08:39.550Z,13.80
2018-12-31T11:11:08.196Z,14.13
2018-12-31T11:13:36.836Z,13.57
2018-12-31T11:16:05.313Z,13.67
2018-12-31T11:18:33.909Z,13.57
2018-12-31T11:21:02.368Z,14.30
2018-12-31T11:23:30.945Z,13.93
2018-12-31T11:25:59.567Z,13.37
2018-12-31T11:28:28.207Z,15.00
2018-12-31T11:30:56.839Z,14.80
2018-12-31T11:33:25.422Z,14.20
2018-12-31T11:35:54.031Z,14.50
2018-12-31T11:38:22.599Z,14.27
2018-12-31T11:40:51.261Z,14.03
2018-12-31T11:43:19.753Z,13.37
2018-12-31T11:45:48.225Z,15.20
2018-12-31T11:48:16.746Z,12.50
2018-12-31T11:50:45.417Z,13.57
2018-12-31T11:53:13.980Z,13.73
2018-12-31T11:55:42.408Z,13.73
2018-12-31T11:58:11.009Z,12.70
2018-12-31T12:00:39.592Z,13.00
2018-12-31T12:03:08.047Z,13.70
2018-12-31T12:05:36.679Z,12.67
2018-12-31T12:08:05.195Z,12.60
2018-12-31T12:10:33.680Z,13.47
2018-12-31T12:13:02.135Z,13.10
2018-12-31T12:15:30.635Z,11.83
2018-12-31T12:18:00.896Z,13.13
2018-12-31T12:20:29.395Z,13.03
2018-12-31T12:22:57.910Z,12.80
2018-12-31T12:25:26.410Z,12.00
2018-12-31T12:27:54.825Z,12.70
2018-12-31T12:30:25.427Z,12.50
2018-12-31T12:35:42.990Z,12.70
2018-12-31T12:38:11.533Z,12.60
2018-12-31T12:40:40.083Z,12.23
2018-12-31T12:43:08.548Z,11.80
2018-12-31T12:48:31.548Z,12.60
2018-12-31T12:50:59.950Z,11.63
2018-12-31T12:53:28.448Z,12.47
2018-12-31T12:55:57.075Z,12.53
2018-12-31T12:58:25.595Z,12.67
2018-12-31T13:00:54.311Z,12.67
2018-12-31T13:03:22.851Z,11.60
2018-12-31T13:05:51.475Z,12.17
2018-12-31T13:08:20.042Z,12.10
2018-12-31T13:10:48.513Z,11.40
2018-12-31T13:13:18.978Z,11.17
2018-12-31T13:15:47.700Z,11.67
2018-12-31T13:18:16.194Z,10.40
2018-12-31T13:20:44.830Z,10.80
2018-12-31T13:23:13.382Z,11.33
2018-12-31T13:25:42.021Z,11.03
2018-12-31T13:28:10.726Z,10.53
2018-12-31T13:30:39.262Z,10.83
2018-12-31T13:33:08.214Z,10.67
2018-12-31T13:35:36.794Z,10.43
2018-12-31T13:38:07.138Z,11.20
2018-12-31T13:40:35.593Z,9.90
2018-12-31T13:43:04.170Z,10.60
2018-12-31T13:45:32.772Z,10.50
2018-12-31T13:48:01.529Z,10.37
2018-12-31T13:50:31.990Z,10.60
2018-12-31T13:53:00.723Z,10.40
2018-12-31T13:55:29.742Z,10.50
2018-12-31T13:57:58.366Z,10.97
2018-12-31T14:00:27.125Z,12.07
2018-12-31T14:05:25.983Z,13.00
2018-12-31T14:07:54.582Z,11.73
2018-12-31T14:10:23.140Z,11.13
2018-12-31T14:12:52.726Z,11.53
2018-12-31T14:15:22.163Z,10.90
2018-12-31T14:17:50.616Z,11.57
2018-12-31T14:20:19.294Z,12.27
2018-12-31T14:22:47.931Z,12.00
2018-12-31T14:25:16.610Z,12.93
2018-12-31T14:27:45.710Z,12.23
2018-12-31T14:30:14.257Z,12.70
2018-12-31T14:32:42.855Z,12.20
2018-12-31T14:35:11.626Z,13.23
2018-12-31T14:37:40.271Z,12.90
2018-12-31T14:40:10.688Z,13.30
2018-12-31T14:42:39.472Z,13.70
2018-12-31T14:45:08.205Z,13.60
2018-12-31T14:47:36.696Z,14.07
2018-12-31T14:50:45.183Z,14.43
2018-12-31T14:53:13.773Z,14.33
2018-12-31T14:55:42.764Z,13.77
2018-12-31T14:58:13.224Z,14.97
2018-12-31T15:00:42.101Z,14.73
2018-12-31T15:03:10.691Z,16.60
2018-12-31T15:05:39.261Z,14.40
2018-12-31T15:08:27.214Z,15.03
2018-12-31T15:10:55.698Z,16.10
2018-12-31T15:13:24.292Z,15.63
2018-12-31T15:15:52.830Z,15.70
2018-12-31T15:18:21.485Z,16.13
2018-12-31T15:20:49.963Z,16.83
2018-12-31T15:23:18.538Z,15.70
2018-12-31T15:25:47.483Z,18.10
2018-12-31T15:28:16.115Z,16.90
2018-12-31T15:30:44.668Z,18.90
2018-12-31T15:33:54.830Z,19.90
2018-12-31T15:36:23.359Z,19.07
2018-12-31T15:38:53.610Z,17.40
2018-12-31T15:41:22.174Z,18.43
2018-12-31T15:43:50.689Z,19.10
2018-12-31T15:46:20.427Z,19.20
2018-12-31T15:48:49.541Z,20.87
2018-12-31T15:51:17.931Z,19.93
2018-12-31T15:53:46.522Z,20.27
2018-12-31T15:56:15.020Z,21.07
2018-12-31T15:58:43.468Z,22.97
2018-12-31T16:01:11.981Z,21.57
2018-12-31T16:03:42.301Z,22.67
2018-12-31T16:06:11.150Z,22.67
2018-12-31T16:08:39.687Z,27.93
2018-12-31T16:11:08.324Z,36.90
2018-12-31T16:13:36.931Z,23.23
2018-12-31T16:16:07.226Z,24.60
2018-12-31T16:18:35.727Z,25.40
2018-12-31T16:21:05.855Z,26.00
2018-12-31T16:23:34.436Z,28.93
2018-12-31T16:26:02.981Z,25.93
2018-12-31T16:28:33.736Z,26.60
2018-12-31T16:31:42.508Z,25.63
2018-12-31T16:34:12.990Z,24.20
2018-12-31T16:36:41.616Z,25.13
2018-12-31T16:39:10.348Z,26.40
2018-12-31T16:42:18.854Z,24.27
2018-12-31T16:44:47.393Z,23.80
2018-12-31T16:47:15.924Z,24.47
2018-12-31T16:52:33.964Z,24.73
2018-12-31T16:55:02.512Z,22.47
2018-12-31T16:57:31.293Z,23.70
2018-12-31T16:59:59.803Z,24.97
2018-12-31T17:02:28.815Z,23.53
2018-12-31T17:05:37.247Z,23.57
2018-12-31T17:08:06.312Z,26.60
2018-12-31T17:10:34.930Z,26.30
2018-12-31T17:13:03.516Z,29.13
2018-12-31T17:15:32.155Z,29.90
2018-12-31T17:18:00.722Z,31.83
2018-12-31T17:20:29.362Z,35.47
2018-12-31T17:22:57.891Z,40.20
2018-12-31T17:25:26.497Z,37.90
2018-12-31T17:27:55.279Z,34.90
2018-12-31T17:30:23.792Z,31.90
2018-12-31T17:32:52.356Z,32.13
2018-12-31T17:35:20.913Z,33.90
2018-12-31T17:37:49.454Z,33.30
2018-12-31T17:40:18.161Z,34.13
2018-12-31T17:42:46.616Z,34.73
2018-12-31T17:45:22.789Z,38.27
2018-12-31T17:47:45.375Z,34.37
2018-12-31T17:50:13.946Z,38.90
2018-12-31T17:52:42.490Z,42.30
2018-12-31T17:55:11.064Z,39.87
2018-12-31T17:57:39.938Z,37.30
2018-12-31T18:00:50.219Z,36.83
2018-12-31T18:03:18.759Z,37.60
2018-12-31T18:05:49.014Z,37.90
2018-12-31T18:08:17.412Z,44.73
2018-12-31T18:10:45.859Z,44.33
2018-12-31T18:13:14.487Z,37.70
2018-12-31T18:15:43.329Z,33.50
2018-12-31T18:18:12.124Z,32.90
2018-12-31T18:20:40.942Z,34.73
2018-12-31T18:23:09.515Z,31.00
2018-12-31T18:25:37.984Z,30.33
2018-12-31T18:28:06.632Z,31.33
2018-12-31T18:30:35.244Z,32.73
2018-12-31T18:33:03.822Z,30.80
2018-12-31T18:35:32.202Z,50.37
2018-12-31T18:38:01.114Z,49.20
2018-12-31T18:40:29.671Z,36.50
2018-12-31T18:42:58.097Z,37.70
2018-12-31T18:45:26.600Z,35.30
2018-12-31T18:47:55.141Z,36.10
2018-12-31T18:50:23.627Z,36.10
2018-12-31T18:52:52.176Z,37.40
2018-12-31T18:55:20.790Z,36.67
2018-12-31T18:57:51.349Z,37.63
2018-12-31T19:00:20.214Z,40.10
2018-12-31T19:02:48.998Z,37.70
2018-12-31T19:05:17.503Z,32.97
2018-12-31T19:07:46.047Z,32.43
2018-12-31T19:10:16.357Z,33.43
2018-12-31T19:12:44.903Z,29.03
2018-12-31T19:15:13.314Z,31.60
2018-12-31T19:17:42.222Z,33.20
2018-12-31T19:20:11.147Z,33.53
2018-12-31T19:22:39.690Z,31.30
2018-12-31T19:25:08.263Z,34.07
2018-12-31T19:27:37.205Z,39.57
2018-12-31T19:30:45.631Z,37.93
2018-12-31T19:33:14.128Z,40.77
2018-12-31T19:36:01.930Z,46.30
2018-12-31T19:38:30.463Z,75.17
2018-12-31T19:40:58.947Z,43.93
2018-12-31T19:43:27.497Z,40.07
2018-12-31T19:45:56.488Z,43.17
2018-12-31T19:48:24.954Z,47.40
2018-12-31T19:51:01.160Z,39.87
2018-12-31T19:53:29.588Z,48.20
2018-12-31T19:55:58.260Z,38.07
2018-12-31T19:58:26.983Z,51.50
2018-12-31T20:00:55.626Z,52.70
2018-12-31T20:03:24.269Z,52.70
2018-12-31T20:05:52.787Z,47.20
2018-12-31T20:08:21.375Z,53.67
2018-12-31T20:10:49.955Z,66.00
2018-12-31T20:13:18.603Z,53.57
2018-12-31T20:15:48.713Z,45.57
2018-12-31T20:18:17.496Z,46.17
2018-12-31T20:20:46.062Z,47.13
2018-12-31T20:23:14.591Z,37.30
2018-12-31T20:25:43.299Z,38.80
2018-12-31T20:28:12.148Z,40.30
2018-12-31T20:30:42.313Z,39.20
2018-12-31T20:33:10.854Z,34.93
2018-12-31T20:35:39.302Z,35.23
2018-12-31T20:38:07.843Z,36.53
2018-12-31T20:40:36.312Z,38.33
2018-12-31T20:43:04.843Z,31.10
2018-12-31T20:45:35.026Z,37.33
2018-12-31T20:48:03.517Z,36.53
2018-12-31T20:50:31.882Z,40.07
2018-12-31T20:53:00.471Z,38.67
2018-12-31T20:55:29.255Z,37.40
2018-12-31T20:57:57.705Z,35.90
2018-12-31T21:00:26.261Z,37.77
2018-12-31T21:02:54.791Z,40.67
2018-12-31T21:05:23.364Z,35.77
2018-12-31T21:07:51.836Z,40.37
2018-12-31T21:10:20.295Z,38.67
2018-12-31T21:12:48.953Z,39.87
2018-12-31T21:15:17.492Z,38.87
2018-12-31T21:17:46.052Z,43.67
2018-12-31T21:20:14.665Z,38.00
2018-12-31T21:22:43.169Z,43.33
2018-12-31T21:25:13.344Z,58.77
2018-12-31T21:27:41.797Z,58.57
2018-12-31T21:30:50.263Z,40.60
2018-12-31T21:33:18.841Z,48.80
2018-12-31T21:35:47.661Z,106.30
2018-12-31T21:38:16.464Z,46.40
2018-12-31T21:40:44.902Z,81.23
2018-12-31T21:43:13.500Z,56.40
2018-12-31T21:45:42.142Z,50.40
2018-12-31T21:48:10.670Z,56.07
2018-12-31T21:50:39.240Z,55.53
2018-12-31T21:53:07.876Z,42.43
2018-12-31T21:55:36.428Z,45.47
2018-12-31T21:58:05.455Z,46.53
2018-12-31T22:00:33.867Z,42.77
2018-12-31T22:03:02.757Z,52.40
2018-12-31T22:05:31.346Z,54.53
2018-12-31T22:07:59.818Z,49.17
2018-12-31T22:10:28.291Z,55.90
2018-12-31T22:12:56.776Z,32.20
2018-12-31T22:15:25.225Z,37.80
2018-12-31T22:17:54.019Z,37.40
2018-12-31T22:20:22.595Z,35.53
2018-12-31T22:22:51.150Z,34.57
2018-12-31T22:25:21.353Z,36.23
2018-12-31T22:27:49.908Z,32.60
2018-12-31T22:30:18.273Z,34.77
2018-12-31T22:32:46.855Z,48.90
2018-12-31T22:35:15.400Z,37.40
2018-12-31T22:37:45.560Z,31.97
2018-12-31T22:40:14.134Z,32.10
2018-12-31T22:42:42.646Z,37.67
2018-12-31T22:45:11.227Z,31.57
2018-12-31T22:47:39.680Z,34.53
2018-12-31T22:50:48.123Z,32.37
2018-12-31T22:53:16.667Z,50.77
2018-12-31T22:55:45.268Z,48.67
2018-12-31T22:58:13.725Z,43.30
2018-12-31T23:03:21.275Z,385.20
2018-12-31T23:06:09.388Z,999.90
2018-12-31T23:08:38.117Z,777.77
2018-12-31T23:11:06.778Z,392.83
2018-12-31T23:13:35.413Z,289.70
2018-12-31T23:16:03.972Z,454.33
2018-12-31T23:18:32.517Z,610.60
2018-12-31T23:21:01.464Z,581.53
2018-12-31T23:23:30.011Z,335.20
2018-12-31T23:25:58.937Z,414.77
2018-12-31T23:28:27.590Z,326.37
2018-12-31T23:30:57.856Z,261.43
2018-12-31T23:33:26.842Z,313.87
2018-12-31T23:35:55.480Z,189.03
2018-12-31T23:38:24.038Z,329.63
2018-12-31T23:40:52.620Z,269.57
2018-12-31T23:43:22.826Z,211.63
2018-12-31T23:45:51.434Z,157.90
2018-12-31T23:48:19.943Z,154.63
2018-12-31T23:50:48.353Z,151.77
2018-12-31T23:53:16.755Z,252.77
2018-12-31T23:55:45.263Z,125.97
2018-12-31T23:58:13.722Z,100.50
